Time;durP1;ratioP1;P1;durP2;ratioP2;P2;SDS_P1;SDS_P2;PMS_P1;PMS_P2;Temp;Humidity;BMP_temperature;BMP_pressure;BME280_temperature;BME280_humidity;BME280_pressure;Samples;Min_cycle;Max_cycle;Signal;HPM_P1;HPM_P2
2021/09/14 00:01:50;;;;;;;58.75;14.43;;;;;;;;;;4972408;28;20055;-68
2021/09/14 00:04:18;;;;;;;57.53;12.68;;;;;;;;;;4971626;28;20070;-68
2021/09/14 00:06:47;;;;;;;51.67;12.18;;;;;;;;;;4972835;28;20397;-69
2021/09/14 00:09:15;;;;;;;42.50;10.77;;;;;;;;;;4969584;28;20043;-68
2021/09/14 00:11:43;;;;;;;38.08;9.80;;;;;;;;;;4971214;28;20352;-68
2021/09/14 00:14:12;;;;;;;33.13;9.23;;;;;;;;;;4972008;28;20146;-68
2021/09/14 00:16:40;;;;;;;28.95;8.38;;;;;;;;;;4972341;28;20133;-68
2021/09/14 00:19:09;;;;;;;35.28;8.70;;;;;;;;;;4972602;28;20050;-69
2021/09/14 00:21:38;;;;;;;24.00;8.48;;;;;;;;;;4971841;28;20047;-69
2021/09/14 00:24:06;;;;;;;26.90;7.60;;;;;;;;;;4972397;28;20046;-68
2021/09/14 00:26:34;;;;;;;28.40;8.25;;;;;;;;;;4971786;28;20047;-68
2021/09/14 00:29:02;;;;;;;27.83;8.50;;;;;;;;;;4971786;28;20078;-68
2021/09/14 00:31:32;;;;;;;21.90;7.65;;;;;;;;;;4972546;28;20051;-68
2021/09/14 00:34:01;;;;;;;23.25;7.53;;;;;;;;;;4970754;28;20047;-69
2021/09/14 00:36:30;;;;;;;22.52;7.70;;;;;;;;;;4971732;28;20050;-68
2021/09/14 00:38:58;;;;;;;26.80;7.53;;;;;;;;;;4972692;28;20054;-68
2021/09/14 00:41:27;;;;;;;23.45;7.80;;;;;;;;;;4971972;28;20138;-68
2021/09/14 00:43:55;;;;;;;27.83;7.97;;;;;;;;;;4971325;28;20407;-69
2021/09/14 00:46:24;;;;;;;21.77;7.22;;;;;;;;;;4973045;28;20055;-68
2021/09/14 00:48:52;;;;;;;16.95;6.75;;;;;;;;;;4971596;28;20085;-68
2021/09/14 00:51:20;;;;;;;16.27;7.05;;;;;;;;;;4970003;28;20055;-68
2021/09/14 00:53:50;;;;;;;13.88;6.70;;;;;;;;;;4970405;28;20085;-68
2021/09/14 00:56:19;;;;;;;15.77;5.78;;;;;;;;;;4972414;28;20137;-68
2021/09/14 00:58:47;;;;;;;18.00;7.03;;;;;;;;;;4971712;28;20046;-68
2021/09/14 01:01:15;;;;;;;13.88;6.88;;;;;;;;;;4971735;28;20138;-68
2021/09/14 01:03:44;;;;;;;16.58;5.82;;;;;;;;;;4979288;23;20067;-69
2021/09/14 01:06:12;;;;;;;14.05;6.20;;;;;;;;;;4964538;28;20412;-68
2021/09/14 01:08:41;;;;;;;17.65;7.53;;;;;;;;;;4972535;28;20055;-71
2021/09/14 01:11:10;;;;;;;18.13;6.55;;;;;;;;;;4971614;28;20050;-70
2021/09/14 01:13:39;;;;;;;17.25;6.65;;;;;;;;;;4962233;28;20550;-69
2021/09/14 01:16:09;;;;;;;15.15;6.45;;;;;;;;;;4972621;28;20046;-68
2021/09/14 01:18:37;;;;;;;15.52;6.85;;;;;;;;;;4972025;28;20046;-70
2021/09/14 01:21:06;;;;;;;17.45;6.55;;;;;;;;;;4972512;28;20050;-69
2021/09/14 01:23:35;;;;;;;15.85;6.47;;;;;;;;;;4972002;28;20050;-69
2021/09/14 01:26:03;;;;;;;14.65;6.80;;;;;;;;;;4972048;28;20128;-68
2021/09/14 01:28:32;;;;;;;14.82;6.68;;;;;;;;;;4971616;28;20559;-69
2021/09/14 01:31:00;;;;;;;12.00;5.88;;;;;;;;;;4972111;28;20497;-69
2021/09/14 01:33:28;;;;;;;17.02;6.72;;;;;;;;;;4971898;28;20073;-69
2021/09/14 01:35:56;;;;;;;13.07;6.95;;;;;;;;;;4972250;28;20149;-70
2021/09/14 01:38:25;;;;;;;12.77;6.35;;;;;;;;;;4972594;28;20043;-68
2021/09/14 01:40:55;;;;;;;12.98;5.97;;;;;;;;;;4972228;28;20058;-70
2021/09/14 01:43:23;;;;;;;10.70;6.13;;;;;;;;;;4971780;28;20050;-68
2021/09/14 01:45:51;;;;;;;13.02;6.32;;;;;;;;;;4971180;28;20046;-73
2021/09/14 01:48:19;;;;;;;13.60;5.90;;;;;;;;;;4972276;28;20061;-69
2021/09/14 01:50:48;;;;;;;14.95;5.47;;;;;;;;;;4971580;28;20085;-69
2021/09/14 01:53:16;;;;;;;15.95;6.50;;;;;;;;;;4971099;28;20479;-69
2021/09/14 01:55:45;;;;;;;18.15;6.40;;;;;;;;;;4971977;28;20086;-69
2021/09/14 01:58:15;;;;;;;13.95;6.13;;;;;;;;;;4972593;28;20051;-69
2021/09/14 02:00:49;;;;;;;15.30;6.38;;;;;;;;;;4971886;28;20057;-70
2021/09/14 02:03:27;;;;;;;12.02;5.90;;;;;;;;;;4969168;28;20051;-69
2021/09/14 02:06:24;;;;;;;13.73;5.88;;;;;;;;;;4968890;28;20598;-69
2021/09/14 02:42:34;;;;;;;8.60;5.22;;;;;;;;;;4969353;28;20039;-71
2021/09/14 02:56:23;;;;;;;8.32;4.53;;;;;;;;;;4975082;28;20070;-72
2021/09/14 02:58:51;;;;;;;9.77;4.85;;;;;;;;;;4968735;28;20134;-69
2021/09/14 03:01:21;;;;;;;8.45;5.03;;;;;;;;;;4965039;28;20053;-70
2021/09/14 03:03:53;;;;;;;8.57;5.10;;;;;;;;;;4980884;28;20066;-71
2021/09/14 03:06:21;;;;;;;8.23;5.15;;;;;;;;;;4993702;28;20046;-70
2021/09/14 03:08:49;;;;;;;7.78;5.07;;;;;;;;;;4992358;28;20125;-69
2021/09/14 03:11:19;;;;;;;9.00;5.25;;;;;;;;;;4994553;28;20081;-70
2021/09/14 03:13:47;;;;;;;8.30;4.70;;;;;;;;;;4993804;28;20057;-71
2021/09/14 03:16:16;;;;;;;11.60;5.07;;;;;;;;;;4993084;28;20054;-69
2021/09/14 03:18:44;;;;;;;6.60;4.75;;;;;;;;;;4994408;28;20050;-69
2021/09/14 03:21:14;;;;;;;10.60;5.22;;;;;;;;;;4993036;28;20056;-71
2021/09/14 03:23:43;;;;;;;8.43;4.90;;;;;;;;;;4993273;28;20133;-70
2021/09/14 03:26:11;;;;;;;8.90;4.85;;;;;;;;;;4994028;28;20070;-69
2021/09/14 03:28:51;;;;;;;7.88;3.87;;;;;;;;;;3068211;28;10002585;-69
2021/09/14 03:31:19;;;;;;;10.48;4.60;;;;;;;;;;2581790;28;10002122;-69
2021/09/14 03:33:47;;;;;;;8.93;5.10;;;;;;;;;;4993317;28;20486;-69
2021/09/14 03:36:17;;;;;;;10.30;5.05;;;;;;;;;;4993605;28;20125;-69
2021/09/14 03:38:45;;;;;;;7.65;4.78;;;;;;;;;;4990543;28;20050;-69
2021/09/14 03:41:13;;;;;;;11.95;4.30;;;;;;;;;;4992771;28;20558;-69
2021/09/14 03:43:42;;;;;;;13.75;4.80;;;;;;;;;;4993549;28;20049;-69
2021/09/14 03:46:10;;;;;;;8.05;4.18;;;;;;;;;;4992512;28;20054;-69
2021/09/14 03:48:38;;;;;;;7.68;4.53;;;;;;;;;;4993332;28;20050;-71
2021/09/14 03:51:07;;;;;;;8.93;4.80;;;;;;;;;;4991800;28;20125;-71
2021/09/14 03:53:37;;;;;;;9.10;4.90;;;;;;;;;;4983313;28;20151;-69
2021/09/14 03:56:05;;;;;;;8.63;4.55;;;;;;;;;;4993403;28;20137;-69
2021/09/14 03:58:33;;;;;;;8.05;5.18;;;;;;;;;;4993071;28;20625;-69
2021/09/14 04:01:02;;;;;;;7.28;4.35;;;;;;;;;;4992045;28;20042;-70
2021/09/14 04:03:39;;;;;;;11.38;5.00;;;;;;;;;;4991968;28;20423;-70
2021/09/14 04:06:24;;;;;;;11.45;4.82;;;;;;;;;;4992197;28;20053;-70
2021/09/14 04:08:55;;;;;;;18.80;5.97;;;;;;;;;;4992530;28;20085;-70
2021/09/14 04:11:24;;;;;;;19.05;5.40;;;;;;;;;;4993039;28;20161;-68
2021/09/14 04:13:52;;;;;;;15.15;5.90;;;;;;;;;;4991884;28;20101;-69
2021/09/14 04:16:21;;;;;;;15.65;5.85;;;;;;;;;;4992029;28;20070;-68
2021/09/14 04:18:49;;;;;;;23.23;5.45;;;;;;;;;;4992939;28;20141;-69
2021/09/14 04:21:18;;;;;;;15.50;5.10;;;;;;;;;;4991415;28;20070;-70
2021/09/14 04:23:46;;;;;;;12.35;5.57;;;;;;;;;;4991568;28;20138;-71
2021/09/14 04:26:16;;;;;;;17.75;5.47;;;;;;;;;;4982475;28;20112;-69
2021/09/14 04:28:44;;;;;;;15.25;4.57;;;;;;;;;;4991891;28;20235;-70
2021/09/14 04:31:12;;;;;;;11.10;4.45;;;;;;;;;;4988346;28;21502;-68
2021/09/14 04:33:40;;;;;;;7.32;3.63;;;;;;;;;;4983192;28;20038;-70
2021/09/14 04:36:09;;;;;;;9.55;4.50;;;;;;;;;;4978675;28;20085;-71
2021/09/14 04:38:39;;;;;;;7.60;4.25;;;;;;;;;;4988072;28;20054;-73
2021/09/14 04:41:07;;;;;;;11.40;4.63;;;;;;;;;;4985020;28;20537;-75
2021/09/14 04:43:37;;;;;;;8.93;4.65;;;;;;;;;;4988267;28;20093;-72
2021/09/14 04:46:05;;;;;;;7.50;4.10;;;;;;;;;;4988384;28;20050;-69
2021/09/14 04:48:34;;;;;;;6.88;4.32;;;;;;;;;;4989284;28;20153;-70
2021/09/14 04:51:02;;;;;;;8.35;3.95;;;;;;;;;;4986708;28;20454;-70
2021/09/14 04:53:30;;;;;;;7.88;4.25;;;;;;;;;;4988874;28;20046;-71
2021/09/14 04:55:59;;;;;;;9.90;4.05;;;;;;;;;;4986664;28;20057;-70
2021/09/14 04:58:28;;;;;;;10.52;4.45;;;;;;;;;;4988245;28;20205;-70
2021/09/14 05:00:57;;;;;;;6.93;3.75;;;;;;;;;;4988158;28;20499;-72
2021/09/14 05:03:27;;;;;;;9.50;4.75;;;;;;;;;;4987235;28;20469;-71
2021/09/14 05:05:56;;;;;;;10.88;4.80;;;;;;;;;;4987224;28;20241;-70
2021/09/14 05:08:25;;;;;;;8.88;4.43;;;;;;;;;;4986722;28;20096;-69
2021/09/14 05:10:54;;;;;;;8.50;4.50;;;;;;;;;;4985171;28;20073;-70
2021/09/14 05:13:22;;;;;;;9.43;5.13;;;;;;;;;;4987619;28;20588;-70
2021/09/14 05:15:50;;;;;;;8.57;4.38;;;;;;;;;;4988764;28;20522;-69
2021/09/14 05:18:20;;;;;;;7.70;4.63;;;;;;;;;;4987502;28;20058;-69
2021/09/14 05:20:50;;;;;;;8.60;4.22;;;;;;;;;;4981881;28;20050;-70
2021/09/14 05:23:23;;;;;;;9.73;4.85;;;;;;;;;;4980942;28;20057;-71
2021/09/14 05:25:54;;;;;;;11.35;4.90;;;;;;;;;;4985747;28;20483;-70
2021/09/14 05:28:22;;;;;;;15.27;6.10;;;;;;;;;;4984473;28;20052;-69
2021/09/14 05:30:50;;;;;;;9.35;5.00;;;;;;;;;;4983761;28;20072;-73
2021/09/14 05:33:20;;;;;;;11.95;5.60;;;;;;;;;;4985503;28;20133;-69
2021/09/14 05:35:49;;;;;;;16.35;5.65;;;;;;;;;;4987467;28;20137;-71
2021/09/14 05:38:18;;;;;;;9.23;4.88;;;;;;;;;;4987246;28;20046;-75
2021/09/14 05:40:47;;;;;;;11.95;4.72;;;;;;;;;;4988289;28;20081;-70
2021/09/14 05:43:15;;;;;;;11.82;4.78;;;;;;;;;;4987000;28;20058;-69
2021/09/14 05:45:43;;;;;;;10.38;5.13;;;;;;;;;;4988142;28;20058;-69
2021/09/14 05:48:12;;;;;;;10.32;4.93;;;;;;;;;;4986702;28;20045;-70
2021/09/14 05:50:42;;;;;;;12.13;5.05;;;;;;;;;;4985616;28;20129;-69
2021/09/14 05:53:10;;;;;;;9.68;4.53;;;;;;;;;;4985922;28;20053;-69
2021/09/14 05:55:39;;;;;;;9.38;4.68;;;;;;;;;;4987464;28;20078;-69
2021/09/14 05:58:08;;;;;;;9.68;5.07;;;;;;;;;;4988582;28;20053;-75
2021/09/14 06:00:36;;;;;;;7.20;4.68;;;;;;;;;;4985224;28;20064;-70
2021/09/14 06:03:05;;;;;;;10.95;4.93;;;;;;;;;;4988012;28;20051;-70
2021/09/14 06:05:33;;;;;;;11.10;4.93;;;;;;;;;;4985970;28;20109;-76
2021/09/14 06:08:03;;;;;;;11.35;4.68;;;;;;;;;;4987228;28;20557;-70
2021/09/14 06:10:32;;;;;;;9.75;4.85;;;;;;;;;;4988188;28;20042;-70
2021/09/14 06:13:00;;;;;;;8.27;4.97;;;;;;;;;;4984173;28;20049;-73
2021/09/14 06:15:29;;;;;;;9.98;5.05;;;;;;;;;;4986122;28;20137;-70
2021/09/14 06:17:57;;;;;;;8.82;4.35;;;;;;;;;;4988847;28;20053;-70
2021/09/14 06:20:25;;;;;;;10.52;4.97;;;;;;;;;;4987233;28;20201;-71
2021/09/14 06:22:53;;;;;;;9.57;5.03;;;;;;;;;;4979142;28;20082;-70
2021/09/14 06:25:23;;;;;;;7.97;4.78;;;;;;;;;;4971887;28;20149;-74
2021/09/14 06:27:52;;;;;;;9.52;4.40;;;;;;;;;;4989140;28;20078;-72
2021/09/14 06:30:20;;;;;;;9.73;4.47;;;;;;;;;;4988180;28;20054;-70
2021/09/14 06:32:48;;;;;;;10.95;4.45;;;;;;;;;;4982855;28;20526;-70
2021/09/14 06:35:17;;;;;;;10.65;4.45;;;;;;;;;;4988653;28;20060;-71
2021/09/14 06:37:45;;;;;;;9.25;4.80;;;;;;;;;;4991037;28;20050;-70
2021/09/14 06:40:14;;;;;;;10.02;4.90;;;;;;;;;;4992007;28;20137;-73
2021/09/14 06:42:44;;;;;;;10.35;4.80;;;;;;;;;;4990545;28;20086;-72
2021/09/14 06:45:12;;;;;;;9.30;4.28;;;;;;;;;;4987407;28;20134;-71
2021/09/14 06:47:44;;;;;;;9.85;4.38;;;;;;;;;;4989824;28;20046;-70
2021/09/14 06:50:12;;;;;;;8.18;4.55;;;;;;;;;;4989826;28;20503;-72
2021/09/14 06:52:46;;;;;;;7.70;5.00;;;;;;;;;;4990678;28;20042;-73
2021/09/14 06:55:14;;;;;;;8.48;5.22;;;;;;;;;;4989460;28;20046;-73
2021/09/14 06:57:44;;;;;;;8.60;5.03;;;;;;;;;;4986084;28;20062;-70
2021/09/14 07:00:13;;;;;;;12.13;6.47;;;;;;;;;;4987066;28;20054;-76
2021/09/14 07:02:41;;;;;;;9.77;5.03;;;;;;;;;;4989895;28;20050;-70
2021/09/14 07:05:11;;;;;;;8.63;5.25;;;;;;;;;;4989304;28;20049;-70
2021/09/14 07:07:39;;;;;;;8.80;5.28;;;;;;;;;;4980356;28;20101;-71
2021/09/14 07:10:08;;;;;;;8.00;5.20;;;;;;;;;;4990303;28;20043;-74
2021/09/14 07:12:36;;;;;;;10.75;5.75;;;;;;;;;;4979480;28;20049;-72
2021/09/14 07:15:07;;;;;;;7.97;5.30;;;;;;;;;;4984919;28;20054;-73
2021/09/14 07:17:37;;;;;;;7.70;4.57;;;;;;;;;;4985080;28;20050;-76
2021/09/14 07:20:07;;;;;;;9.38;5.05;;;;;;;;;;4988040;28;20064;-73
2021/09/14 07:22:36;;;;;;;8.40;5.30;;;;;;;;;;4979596;28;20142;-71
2021/09/14 07:25:05;;;;;;;7.70;4.75;;;;;;;;;;4971313;28;20054;-75
2021/09/14 07:27:33;;;;;;;9.40;4.88;;;;;;;;;;4987376;28;20050;-71
2021/09/14 07:30:02;;;;;;;9.18;5.55;;;;;;;;;;4989707;28;20081;-71
2021/09/14 07:32:32;;;;;;;7.72;4.72;;;;;;;;;;4987942;28;20050;-72
2021/09/14 07:35:00;;;;;;;9.07;5.03;;;;;;;;;;4987220;28;20594;-71
2021/09/14 07:37:29;;;;;;;8.73;5.20;;;;;;;;;;4989116;28;20050;-70
2021/09/14 07:39:57;;;;;;;8.65;4.57;;;;;;;;;;4988940;28;20050;-73
2021/09/14 07:42:26;;;;;;;10.48;5.57;;;;;;;;;;4988297;28;20463;-70
2021/09/14 07:44:54;;;;;;;10.50;5.60;;;;;;;;;;4988555;28;20514;-70
2021/09/14 07:47:26;;;;;;;11.55;4.97;;;;;;;;;;4983199;28;20121;-76
2021/09/14 07:49:56;;;;;;;9.60;5.38;;;;;;;;;;4983978;28;20605;-76
2021/09/14 07:52:24;;;;;;;10.23;5.38;;;;;;;;;;4984869;28;20129;-72
2021/09/14 07:54:53;;;;;;;8.48;4.78;;;;;;;;;;4975778;28;20077;-72
2021/09/14 07:57:21;;;;;;;9.15;5.25;;;;;;;;;;4988997;28;20454;-74
2021/09/14 07:59:49;;;;;;;8.93;5.25;;;;;;;;;;4987100;28;20494;-75
2021/09/14 08:02:18;;;;;;;10.10;5.38;;;;;;;;;;4987184;28;20046;-73
2021/09/14 08:04:47;;;;;;;10.27;5.85;;;;;;;;;;4987915;28;20065;-72
2021/09/14 08:07:17;;;;;;;7.75;4.97;;;;;;;;;;4967446;28;20050;-73
2021/09/14 08:09:45;;;;;;;11.35;5.13;;;;;;;;;;4986339;28;20051;-80
2021/09/14 08:12:14;;;;;;;8.90;4.45;;;;;;;;;;4987360;28;20085;-77
2021/09/14 08:14:43;;;;;;;9.18;5.30;;;;;;;;;;4987385;28;20058;-71
2021/09/14 08:17:15;;;;;;;10.57;4.93;;;;;;;;;;4987881;28;20332;-71
2021/09/14 08:19:43;;;;;;;7.78;4.65;;;;;;;;;;4983426;28;20050;-73
2021/09/14 08:22:12;;;;;;;13.57;5.07;;;;;;;;;;4976906;28;20054;-72
2021/09/14 08:24:42;;;;;;;8.57;4.70;;;;;;;;;;4972951;28;20050;-74
2021/09/14 08:27:11;;;;;;;7.15;4.55;;;;;;;;;;4986229;28;20105;-74
2021/09/14 08:29:39;;;;;;;10.02;5.30;;;;;;;;;;4986389;28;20046;-79
2021/09/14 08:32:08;;;;;;;8.63;4.80;;;;;;;;;;4986406;28;20046;-71
2021/09/14 08:34:36;;;;;;;8.70;4.88;;;;;;;;;;4982195;28;20054;-74
2021/09/14 08:37:05;;;;;;;7.68;4.78;;;;;;;;;;4982969;28;20498;-71
2021/09/14 08:39:33;;;;;;;7.75;5.25;;;;;;;;;;4988424;28;20042;-70
2021/09/14 08:42:03;;;;;;;8.25;4.90;;;;;;;;;;4987796;28;20054;-78
2021/09/14 08:44:32;;;;;;;8.75;4.93;;;;;;;;;;4985357;28;20058;-75
2021/09/14 08:47:03;;;;;;;8.55;4.88;;;;;;;;;;4989366;28;20096;-76
2021/09/14 08:49:32;;;;;;;8.07;4.53;;;;;;;;;;4988732;28;20530;-75
2021/09/14 08:52:00;;;;;;;7.47;5.07;;;;;;;;;;4988949;28;20078;-79
2021/09/14 08:54:29;;;;;;;6.45;4.68;;;;;;;;;;4979487;28;20050;-71
2021/09/14 08:56:57;;;;;;;8.60;4.97;;;;;;;;;;4986359;28;20054;-73
2021/09/14 08:59:29;;;;;;;9.30;5.10;;;;;;;;;;4986311;28;20057;-71
2021/09/14 09:01:58;;;;;;;6.35;4.40;;;;;;;;;;4984070;28;20050;-77
2021/09/14 09:04:27;;;;;;;8.00;4.90;;;;;;;;;;4983491;28;20046;-71
2021/09/14 09:07:02;;;;;;;7.47;4.55;;;;;;;;;;4989255;28;20137;-71
2021/09/14 09:09:32;;;;;;;6.78;4.63;;;;;;;;;;4978124;28;20050;-74
2021/09/14 09:12:02;;;;;;;7.97;4.75;;;;;;;;;;4986373;28;21621;-72
2021/09/14 09:14:36;;;;;;;7.35;4.50;;;;;;;;;;4985579;28;20133;-71
2021/09/14 09:17:05;;;;;;;9.65;5.15;;;;;;;;;;4987208;28;20057;-81
2021/09/14 09:19:41;;;;;;;7.47;5.00;;;;;;;;;;4985976;28;20093;-71
2021/09/14 09:22:11;;;;;;;9.02;5.15;;;;;;;;;;4977966;28;20110;-79
2021/09/14 09:24:47;;;;;;;10.77;4.97;;;;;;;;;;4985588;28;20677;-74
2021/09/14 09:27:16;;;;;;;8.57;4.65;;;;;;;;;;4983614;28;20050;-77
2021/09/14 09:29:59;;;;;;;9.48;5.00;;;;;;;;;;4976665;28;20455;-74
2021/09/14 09:32:28;;;;;;;5.43;4.00;;;;;;;;;;4982717;28;20050;-75
2021/09/14 09:35:00;;;;;;;6.50;4.40;;;;;;;;;;4974478;28;20116;-73
2021/09/14 09:37:28;;;;;;;8.02;4.47;;;;;;;;;;4989635;28;20569;-74
2021/09/14 09:39:57;;;;;;;6.97;4.22;;;;;;;;;;4984385;28;20065;-71
2021/09/14 09:42:31;;;;;;;9.23;3.75;;;;;;;;;;4985193;28;20176;-71
2021/09/14 09:45:02;;;;;;;6.72;4.45;;;;;;;;;;4984129;28;20093;-79
2021/09/14 09:47:30;;;;;;;6.57;4.45;;;;;;;;;;4979849;28;20051;-78
2021/09/14 09:49:59;;;;;;;7.60;4.47;;;;;;;;;;4987848;28;20050;-77
2021/09/14 09:52:27;;;;;;;6.82;4.22;;;;;;;;;;4992728;28;20082;-71
2021/09/14 09:54:56;;;;;;;5.60;4.43;;;;;;;;;;4992723;28;20093;-76
2021/09/14 09:57:25;;;;;;;10.20;4.32;;;;;;;;;;4990484;28;20046;-71
2021/09/14 09:59:53;;;;;;;4.30;3.70;;;;;;;;;;4991286;28;20046;-73
2021/09/14 10:02:26;;;;;;;4.75;3.75;;;;;;;;;;4991617;28;20053;-73
2021/09/14 10:04:58;;;;;;;7.75;4.63;;;;;;;;;;4990297;28;20062;-71
2021/09/14 10:07:28;;;;;;;4.90;3.72;;;;;;;;;;4986748;28;20049;-71
2021/09/14 10:09:58;;;;;;;5.55;3.90;;;;;;;;;;4973961;28;20047;-71
2021/09/14 10:12:29;;;;;;;6.45;4.15;;;;;;;;;;4992048;28;20046;-75
2021/09/14 10:18:08;;;;;;;6.80;3.75;;;;;;;;;;4988733;28;20101;-74
2021/09/14 10:20:40;;;;;;;6.25;3.70;;;;;;;;;;4988071;28;20129;-71
2021/09/14 10:23:09;;;;;;;4.57;3.30;;;;;;;;;;4990470;28;20129;-76
2021/09/14 10:25:37;;;;;;;5.15;3.72;;;;;;;;;;4988185;28;20129;-71
2021/09/14 10:28:07;;;;;;;4.70;3.50;;;;;;;;;;4991583;28;20046;-70
2021/09/14 10:30:35;;;;;;;7.13;3.67;;;;;;;;;;4991141;28;20526;-77
2021/09/14 10:33:05;;;;;;;6.07;3.70;;;;;;;;;;4990797;28;20119;-72
2021/09/14 10:35:38;;;;;;;6.03;3.40;;;;;;;;;;4981468;28;20143;-75
2021/09/14 10:38:10;;;;;;;5.70;3.80;;;;;;;;;;4985215;28;20053;-71
2021/09/14 10:40:40;;;;;;;4.93;3.50;;;;;;;;;;4980468;28;20050;-74
2021/09/14 10:43:09;;;;;;;5.72;3.60;;;;;;;;;;4991133;28;20124;-77
2021/09/14 10:45:43;;;;;;;4.35;3.40;;;;;;;;;;4993001;28;20050;-72
2021/09/14 10:48:12;;;;;;;;;;;;;;;;;;4991993;28;20113;-70
2021/09/14 10:50:42;;;;;;;4.05;3.10;;;;;;;;;;4994699;28;19988;-69
2021/09/14 10:53:10;;;;;;;5.43;3.42;;;;;;;;;;4992132;28;20090;-76
2021/09/14 10:55:39;;;;;;;4.60;3.25;;;;;;;;;;4992709;28;20522;-74
2021/09/14 10:58:08;;;;;;;5.35;3.33;;;;;;;;;;4990794;28;20085;-70
2021/09/14 11:00:36;;;;;;;4.80;3.65;;;;;;;;;;4993962;28;20050;-71
2021/09/14 11:03:06;;;;;;;5.75;3.83;;;;;;;;;;4993245;28;20133;-70
2021/09/14 11:05:36;;;;;;;4.38;3.45;;;;;;;;;;4993699;28;20054;-69
2021/09/14 11:08:06;;;;;;;8.35;3.85;;;;;;;;;;4989430;28;20446;-70
2021/09/14 11:10:36;;;;;;;6.97;3.40;;;;;;;;;;4992046;28;20055;-72
2021/09/14 11:13:05;;;;;;;4.95;3.80;;;;;;;;;;4992462;28;20085;-69
2021/09/14 11:15:33;;;;;;;6.45;4.03;;;;;;;;;;4993414;28;20077;-70
2021/09/14 11:18:03;;;;;;;5.05;3.75;;;;;;;;;;4992381;28;20046;-70
2021/09/14 11:20:32;;;;;;;4.13;3.30;;;;;;;;;;4991309;28;20049;-70
2021/09/14 11:23:01;;;;;;;4.35;3.33;;;;;;;;;;4991891;28;20065;-70
2021/09/14 11:25:32;;;;;;;3.88;3.08;;;;;;;;;;4992365;28;20078;-69
2021/09/14 11:28:02;;;;;;;6.68;3.70;;;;;;;;;;4984472;28;20152;-74
2021/09/14 11:30:32;;;;;;;4.85;3.53;;;;;;;;;;4979123;28;20125;-72
2021/09/14 11:33:01;;;;;;;5.38;3.97;;;;;;;;;;4979842;28;20050;-76
2021/09/14 11:35:30;;;;;;;4.80;3.72;;;;;;;;;;4983644;28;20545;-74
2021/09/14 11:37:59;;;;;;;6.25;3.88;;;;;;;;;;4989904;28;20545;-71
2021/09/14 11:40:28;;;;;;;5.95;4.13;;;;;;;;;;4992058;28;20046;-70
2021/09/14 11:42:59;;;;;;;4.82;3.63;;;;;;;;;;4990945;28;20058;-72
2021/09/14 11:45:29;;;;;;;4.18;3.60;;;;;;;;;;4990972;28;20124;-67
2021/09/14 11:47:58;;;;;;;5.50;3.95;;;;;;;;;;4991741;28;20043;-68
2021/09/14 11:50:38;;;;;;;6.28;4.00;;;;;;;;;;4991361;28;20042;-71
2021/09/14 11:53:07;;;;;;;4.97;3.88;;;;;;;;;;4988579;28;20054;-68
2021/09/14 11:55:40;;;;;;;4.32;3.50;;;;;;;;;;4990802;28;20125;-68
2021/09/14 11:58:11;;;;;;;4.30;3.35;;;;;;;;;;4984653;28;20049;-71
2021/09/14 12:00:42;;;;;;;4.93;3.70;;;;;;;;;;4986508;28;20145;-70
2021/09/14 12:03:13;;;;;;;6.85;3.80;;;;;;;;;;4988604;28;20053;-69
2021/09/14 12:05:42;;;;;;;6.03;3.80;;;;;;;;;;4988902;28;20070;-68
2021/09/14 12:08:11;;;;;;;4.03;3.20;;;;;;;;;;4992093;28;20077;-69
2021/09/14 12:10:47;;;;;;;4.38;3.35;;;;;;;;;;4988396;28;20104;-69
2021/09/14 12:13:17;;;;;;;5.72;3.80;;;;;;;;;;4991398;28;20077;-68
2021/09/14 12:15:47;;;;;;;3.92;3.30;;;;;;;;;;4991578;28;20050;-68
2021/09/14 12:18:16;;;;;;;5.78;3.83;;;;;;;;;;4990941;28;20462;-68
2021/09/14 12:20:45;;;;;;;4.28;3.47;;;;;;;;;;4989629;28;20141;-68
2021/09/14 12:23:15;;;;;;;5.60;4.07;;;;;;;;;;4988647;28;20060;-69
2021/09/14 12:25:44;;;;;;;4.72;3.55;;;;;;;;;;4982305;28;20046;-68
2021/09/14 12:28:12;;;;;;;5.38;3.67;;;;;;;;;;4982592;28;20086;-70
2021/09/14 12:30:43;;;;;;;5.95;3.53;;;;;;;;;;4980582;28;20059;-68
2021/09/14 12:33:12;;;;;;;4.75;3.30;;;;;;;;;;4972969;28;21808;-71
2021/09/14 12:35:41;;;;;;;6.03;3.30;;;;;;;;;;4987442;28;20100;-69
2021/09/14 12:38:09;;;;;;;4.03;3.10;;;;;;;;;;4988077;28;20053;-70
2021/09/14 12:40:38;;;;;;;7.47;3.38;;;;;;;;;;4990854;28;20561;-69
2021/09/14 12:43:07;;;;;;;4.55;3.38;;;;;;;;;;4987693;28;20050;-71
2021/09/14 12:45:35;;;;;;;5.22;3.08;;;;;;;;;;4987615;28;20052;-70
2021/09/14 12:48:06;;;;;;;4.68;3.10;;;;;;;;;;4988615;28;20161;-69
2021/09/14 12:50:35;;;;;;;5.10;3.42;;;;;;;;;;4984572;28;20137;-69
2021/09/14 12:53:04;;;;;;;5.65;3.70;;;;;;;;;;4991426;28;20081;-70
2021/09/14 12:55:34;;;;;;;4.18;3.25;;;;;;;;;;4990656;28;20046;-68
2021/09/14 12:58:04;;;;;;;5.63;3.22;;;;;;;;;;4988407;28;20062;-74
2021/09/14 13:00:33;;;;;;;4.43;3.50;;;;;;;;;;4988269;28;20407;-70
2021/09/14 13:03:02;;;;;;;4.57;2.97;;;;;;;;;;4976813;28;20042;-70
2021/09/14 13:05:33;;;;;;;4.55;3.42;;;;;;;;;;4989574;28;20457;-69
2021/09/14 13:08:03;;;;;;;4.75;3.33;;;;;;;;;;4987368;28;20593;-70
2021/09/14 13:10:33;;;;;;;4.10;3.40;;;;;;;;;;4990916;28;20050;-69
2021/09/14 13:18:34;;;;;;;4.88;3.55;;;;;;;;;;4989563;28;20121;-70
2021/09/14 13:21:05;;;;;;;7.45;3.60;;;;;;;;;;4990011;28;20553;-70
2021/09/14 13:23:34;;;;;;;5.53;3.33;;;;;;;;;;4981434;28;20225;-69
2021/09/14 13:26:03;;;;;;;5.00;3.63;;;;;;;;;;4973705;28;20141;-73
2021/09/14 13:28:32;;;;;;;4.63;3.60;;;;;;;;;;4977219;28;20133;-73
2021/09/14 13:31:00;;;;;;;5.63;3.58;;;;;;;;;;4978866;28;20182;-71
2021/09/14 13:33:29;;;;;;;4.53;3.65;;;;;;;;;;4987367;28;20426;-70
2021/09/14 13:35:58;;;;;;;4.82;3.25;;;;;;;;;;4990298;28;20054;-70
2021/09/14 13:38:29;;;;;;;5.10;3.28;;;;;;;;;;4987720;28;20046;-73
2021/09/14 13:41:01;;;;;;;4.45;3.45;;;;;;;;;;4984351;28;20100;-70
2021/09/14 13:43:38;;;;;;;4.40;3.45;;;;;;;;;;4984904;28;20629;-70
2021/09/14 13:46:13;;;;;;;4.28;3.35;;;;;;;;;;4983455;28;20483;-69
2021/09/14 13:48:43;;;;;;;4.32;3.28;;;;;;;;;;4986297;28;20054;-69
2021/09/14 13:51:12;;;;;;;6.25;3.83;;;;;;;;;;4984710;28;20053;-70
2021/09/14 13:53:44;;;;;;;4.50;3.20;;;;;;;;;;4978026;28;20165;-69
2021/09/14 13:56:17;;;;;;;7.18;3.63;;;;;;;;;;4985878;28;20050;-69
2021/09/14 13:58:45;;;;;;;5.00;3.55;;;;;;;;;;4987059;28;20403;-70
2021/09/14 14:01:14;;;;;;;4.65;3.88;;;;;;;;;;4980359;28;20469;-69
2021/09/14 14:03:42;;;;;;;6.13;3.20;;;;;;;;;;4983506;28;20458;-69
2021/09/14 14:06:12;;;;;;;4.20;3.28;;;;;;;;;;4988487;28;20052;-71
2021/09/14 14:08:41;;;;;;;4.43;3.30;;;;;;;;;;4983029;28;20542;-71
2021/09/14 14:11:10;;;;;;;4.22;3.45;;;;;;;;;;4986146;28;20093;-72
2021/09/14 14:13:39;;;;;;;3.85;3.17;;;;;;;;;;4985709;28;20050;-70
2021/09/14 14:16:08;;;;;;;5.35;3.80;;;;;;;;;;4989853;28;21721;-70
2021/09/14 14:18:37;;;;;;;4.68;3.30;;;;;;;;;;4988377;28;20049;-68
2021/09/14 14:21:06;;;;;;;4.47;3.55;;;;;;;;;;4989332;28;20058;-69
2021/09/14 14:23:34;;;;;;;6.63;3.65;;;;;;;;;;4985012;28;20070;-71
2021/09/14 14:26:03;;;;;;;5.25;3.70;;;;;;;;;;4988354;28;20054;-69
2021/09/14 14:28:33;;;;;;;6.13;3.05;;;;;;;;;;4982427;28;20046;-69
2021/09/14 14:31:02;;;;;;;3.70;3.15;;;;;;;;;;4988813;28;20061;-69
2021/09/14 14:33:30;;;;;;;4.50;3.58;;;;;;;;;;4989389;28;20053;-69
2021/09/14 14:36:00;;;;;;;4.80;3.83;;;;;;;;;;4994098;28;20045;-72
2021/09/14 14:38:28;;;;;;;5.28;3.88;;;;;;;;;;4992575;28;20419;-71
2021/09/14 14:40:57;;;;;;;5.45;3.70;;;;;;;;;;4990784;28;20054;-69
2021/09/14 14:43:25;;;;;;;5.57;3.22;;;;;;;;;;4988437;28;20097;-68
2021/09/14 14:45:55;;;;;;;5.38;3.53;;;;;;;;;;4994116;28;20118;-69
2021/09/14 14:48:24;;;;;;;5.25;3.30;;;;;;;;;;4993364;28;20050;-73
2021/09/14 14:50:52;;;;;;;4.75;3.28;;;;;;;;;;4993548;28;20097;-70
2021/09/14 14:53:21;;;;;;;5.30;3.88;;;;;;;;;;4992050;28;20061;-70
2021/09/14 14:55:49;;;;;;;4.78;3.55;;;;;;;;;;4987983;28;20050;-70
2021/09/14 14:58:18;;;;;;;5.57;3.58;;;;;;;;;;4993558;28;20078;-70
2021/09/14 15:00:47;;;;;;;6.38;3.47;;;;;;;;;;4993792;28;20085;-70
2021/09/14 15:03:18;;;;;;;5.03;3.70;;;;;;;;;;4991211;28;20054;-69
2021/09/14 15:05:47;;;;;;;5.93;3.72;;;;;;;;;;4993696;28;20046;-69
2021/09/14 15:08:19;;;;;;;3.60;2.97;;;;;;;;;;4991338;28;20161;-71
2021/09/14 15:10:49;;;;;;;5.47;3.42;;;;;;;;;;4973085;28;20047;-69
2021/09/14 15:13:18;;;;;;;5.25;3.15;;;;;;;;;;4991029;28;20153;-69
2021/09/14 15:15:47;;;;;;;5.10;3.40;;;;;;;;;;4991945;28;20125;-69
2021/09/14 15:18:16;;;;;;;4.40;3.13;;;;;;;;;;4991289;28;20046;-69
2021/09/14 15:20:45;;;;;;;5.28;3.40;;;;;;;;;;4990251;28;20054;-69
2021/09/14 15:23:15;;;;;;;5.38;3.30;;;;;;;;;;4986650;28;20050;-68
2021/09/14 15:25:43;;;;;;;4.43;3.03;;;;;;;;;;4992852;28;20474;-69
2021/09/14 15:28:12;;;;;;;5.05;3.35;;;;;;;;;;4993376;28;20054;-69
2021/09/14 15:30:48;;;;;;;5.00;3.28;;;;;;;;;;4991821;28;20043;-71
2021/09/14 15:33:17;;;;;;;4.00;3.20;;;;;;;;;;4990297;28;20125;-70
2021/09/14 15:35:47;;;;;;;5.45;3.53;;;;;;;;;;4991437;28;20503;-69
2021/09/14 15:38:17;;;;;;;6.38;3.78;;;;;;;;;;4988546;28;20537;-68
2021/09/14 15:40:46;;;;;;;4.30;3.20;;;;;;;;;;4992603;28;20085;-69
2021/09/14 15:43:15;;;;;;;4.68;3.75;;;;;;;;;;4990895;28;20051;-68
2021/09/14 15:45:43;;;;;;;5.20;3.45;;;;;;;;;;4991058;28;20113;-69